Portage Des Sioux, MO

1:03 AM CDT on July 25, 2016 (GMT -0500)
Saint Charles County Smartt | | Change Station

Elev 436 ft 38.93 °N, 90.43 °W | Updated 9 minutes ago

Heavy Thunderstorms and Rain
Heavy Thunderstorm Rain
77 °F
Feels Like 77 °F
N
21
Wind Variable Wind from NNE
Gusts 30 mph

Today
High -- | Low -- °F
--% Chance of Precip.
Yesterday
High -- | Low -- °F
Precip. -- in
Pressure 29.91 in
Visibility 1.2 miles
Clouds Mostly Cloudy 3500 ft
Mostly Cloudy 7000 ft
Overcast 9500 ft
Dew Point 69 °F
Humidity 76%
Rainfall 0.12 in
Snow Depth Not available.
5:57 AM 8:18 PM
Waning Gibbous, 69% visible
METAR KSET 250554Z AUTO 02018G26KT 1 1/4SM +TSRA BKN035 BKN070 OVC095 25/21 A2993 RMK AO2 PK WND 02026/0552 LTG DSNT ALQDS PRESFR SLP129 P0012 60016 T02500206 10344 20233 403610233 50016
Pressure 29.91 in
Visibility 1.2 miles
Clouds Mostly Cloudy 3500 ft
Mostly Cloudy 7000 ft
Overcast 9500 ft
Dew Point 69 °F
Humidity 76%
Rainfall 0.12 in
Snow Depth Not available.
5:57 AM 8:18 PM
Waning Gibbous, 69% visible
METAR KSET 250554Z AUTO 02018G26KT 1 1/4SM +TSRA BKN035 BKN070 OVC095 25/21 A2993 RMK AO2 PK WND 02026/0552 LTG DSNT ALQDS PRESFR SLP129 P0012 60016 T02500206 10344 20233 403610233 50016

10-Day Weather Forecast

Almanac

Astronomy

Jul. 25, 2016 Rise Set
Actual Time
Civil Twilight
Nautical Twilight
Astronomical Twilight
Moon
Length of Visible Light
Length of Day
Tomorrow will be .
, % of the Moon is Illuminated

Today's Extremes

State Highs State Lows

Community

WunderPhotos

Upload Photos

1,927,276 photos uploaded!

WunderBlog® & News

Nearby

Air Quality

  Air Quality AQ Index Pollutant
Not available.

Snow Depth

Station Depth Elevation

Earthquake Activity

City Distance Mag. Time & Date
Minimum magnitude displayed is 2.5.

Coastal Water Temperatures

Place Temperature

Stations

Nearby Weather Stations

Station Location Temp. Windchill Dew Point Humidity Wind Precip. Elev Updated Type
                   

Watches & Warnings

There are currently no watches in effect.